Time;durP1;ratioP1;P1;durP2;ratioP2;P2;SDS_P1;SDS_P2;PMS_P1;PMS_P2;Temp;Humidity;BMP_temperature;BMP_pressure;BME280_temperature;BME280_humidity;BME280_pressure;Samples;Min_cycle;Max_cycle;Signal;HPM_P1;HPM_P2
2022/04/06 00:00:00;;;;;;;;;;;;;;;;;;348714;28;1117;-84
2022/04/06 00:00:11;;;;;;;;;;;;;;;;;;348555;28;1873;-83
2022/04/06 00:00:21;;;;;;;;;;;;;;;;;;348775;28;845;-83
2022/04/06 00:00:31;;;;;;;;;;;;;;;;;;348321;28;1664;-83
2022/04/06 00:00:42;;;;;;;;;;;;;;;;;;348638;28;1017;-83
2022/04/06 00:00:52;;;;;;;;;;;;;;;;;;348780;28;813;-83
2022/04/06 00:01:03;;;;;;;;;;;;;;;;;;348783;28;778;-83
2022/04/06 00:01:13;;;;;;;;;;;;;;;;;;348738;28;932;-83
2022/04/06 00:01:23;;;;;;;;;;;;;;;;;;348793;28;846;-84
2022/04/06 00:01:35;;;;;;;;;;;;;;;;;;348748;28;909;-83
2022/04/06 00:01:46;;;;;;;;;;;;;;;;;;348781;28;825;-83
2022/04/06 00:01:56;;;;;;;;;;;;;;;;;;348785;28;988;-83
2022/04/06 00:02:07;;;;;;;;;;;;;;;;;;348782;28;971;-83
2022/04/06 00:02:17;;;;;;;;;;;;;;;;;;348796;28;759;-83
2022/04/06 00:02:27;;;;;;;;;;;;;;;;;;348722;28;1974;-83
2022/04/06 00:02:39;;;;;;;;;;;;;;;;;;348691;28;967;-83
2022/04/06 00:02:50;;;;;;;;;;;;;;;;;;348765;28;789;-83
2022/04/06 00:03:00;;;;;;;;;;;;;;;;;;348725;28;877;-83
2022/04/06 00:03:10;;;;;;;;;;;;;;;;;;348767;28;1015;-83
2022/04/06 00:03:20;;;;;;;;;;;;;;;;;;348675;28;1104;-84
2022/04/06 00:03:31;;;;;;;;;;;;;;;;;;348791;28;940;-83
2022/04/06 00:03:43;;;;;;;;;;;;;;;;;;348707;28;1548;-83
2022/04/06 00:03:54;;;;;;;;;;;;;;;;;;347445;28;886;-83
2022/04/06 00:04:04;;;;;;;;;;;;;;;;;;347398;28;806;-83
2022/04/06 00:04:15;;;;;;;;;;;;;;;;;;348401;28;1656;-83
2022/04/06 00:04:25;;;;;;;;;;;;;;;;;;348775;28;868;-83
2022/04/06 00:04:35;;;;;;;;;;;;;;;;;;348765;28;933;-83
2022/04/06 00:04:45;;;;;;;;;;;;;;;;;;348695;28;1568;-83
2022/04/06 00:04:56;;;;;;;;;;;;;;;;;;348704;28;933;-83
2022/04/06 00:05:08;;;;;;;;;;;;;;;;;;348754;28;786;-83
2022/04/06 00:05:18;;;;;;;;;;;;;;;;;;348785;28;916;-83
2022/04/06 00:05:28;;;;;;;;;;;;;;;;;;348757;28;999;-83
2022/04/06 00:05:38;;;;;;;;;;;;;;;;;;348748;28;894;-83
2022/04/06 00:05:49;;;;;;;;;;;;;;;;;;348770;28;913;-83
2022/04/06 00:05:59;;;;;;;;;;;;;;;;;;348795;28;843;-83
2022/04/06 00:06:09;;;;;;;;;;;;;;;;;;348700;28;1015;-83
2022/04/06 00:06:20;;;;;;;;;;;;;;;;;;348773;28;920;-83
2022/04/06 00:06:30;;;;;;;;;;;;;;;;;;348762;28;987;-83
2022/04/06 00:06:40;;;;;;;;;;;;;;;;;;347743;28;1383;-83
2022/04/06 00:06:54;;;;;;;;;;;;;;;;;;348731;28;905;-83
2022/04/06 00:07:04;;;;;;;;;;;;;;;;;;348797;28;837;-83
2022/04/06 00:07:15;;;;;;;;;;;;;;;;;;348737;28;872;-83
2022/04/06 00:07:26;;;;;;;;;;;;;;;;;;347927;28;1339;-83
2022/04/06 00:07:36;;;;;;;;;;;;;;;;;;348416;28;1431;-83
2022/04/06 00:07:47;;;;;;;;;;;;;;;;;;348683;28;920;-83
2022/04/06 00:07:57;;;;;;;;;;;;;;;;;;348777;28;924;-83
2022/04/06 00:08:07;;;;;;;;;;;;;;;;;;348786;28;983;-83
2022/04/06 00:08:18;;;;;;;;;;;;;;;;;;348702;28;914;-83
2022/04/06 00:08:28;;;;;;;;;;;;;;;;;;348797;28;841;-83
2022/04/06 00:08:38;;;;;;;;;;;;;;;;;;348797;28;933;-83
2022/04/06 00:08:48;;;;;;;;;;;;;;;;;;348757;28;1056;-83
2022/04/06 00:08:59;;;;;;;;;;;;;;;;;;348418;28;1671;-83
2022/04/06 00:09:09;;;;;;;;;;;;;;;;;;348699;28;904;-83
2022/04/06 00:09:20;;;;;;;;;;;;;;;;;;348679;28;1120;-84
2022/04/06 00:09:30;;;;;;;;;;;;;;;;;;348814;28;963;-83
2022/04/06 00:09:40;;;;;;;;;;;;;;;;;;348783;28;778;-83
2022/04/06 00:09:50;;;;;;;;;;;;;;;;;;348697;28;801;-83
2022/04/06 00:10:00;;;;;;;;;;;;;;;;;;348734;28;971;-83
2022/04/06 00:10:12;;;;;;;;;;;;;;;;;;348761;28;960;-83
2022/04/06 00:10:22;;;;;;;;;;;;;;;;;;348786;28;991;-84
2022/04/06 00:10:32;;;;;;;;;;;;;;;;;;348785;28;1070;-84
2022/04/06 00:10:42;;;;;;;;;;;;;;;;;;348769;28;857;-84
2022/04/06 00:10:52;;;;;;;;;;;;;;;;;;348746;28;911;-83
2022/04/06 00:11:03;;;;;;;;;;;;;;;;;;348809;28;873;-84
2022/04/06 00:11:14;;;;;;;;;;;;;;;;;;348780;28;1030;-83
2022/04/06 00:11:24;;;;;;;;;;;;;;;;;;348750;28;1072;-83
2022/04/06 00:11:34;;;;;;;;;;;;;;;;;;348528;28;1636;-83
2022/04/06 00:11:44;;;;;;;;;;;;;;;;;;348305;28;1261;-83
2022/04/06 00:11:55;;;;;;;;;;;;;;;;;;347409;28;846;-83
2022/04/06 00:12:07;;;;;;;;;;;;;;;;;;348564;28;1284;-83
2022/04/06 00:12:17;;;;;;;;;;;;;;;;;;349963;28;1170;-83
2022/04/06 00:12:27;;;;;;;;;;;;;;;;;;350067;28;825;-83
2022/04/06 00:12:38;;;;;;;;;;;;;;;;;;349993;28;912;-83
2022/04/06 00:12:48;;;;;;;;;;;;;;;;;;349941;28;1078;-83
2022/04/06 00:12:59;;;;;;;;;;;;;;;;;;350037;28;897;-83
2022/04/06 00:13:10;;;;;;;;;;;;;;;;;;350005;28;1086;-83
2022/04/06 00:13:20;;;;;;;;;;;;;;;;;;350001;28;967;-83
2022/04/06 00:13:30;;;;;;;;;;;;;;;;;;349883;28;1153;-83
2022/04/06 00:13:40;;;;;;;;;;;;;;;;;;350003;28;970;-83
2022/04/06 00:13:50;;;;;;;;;;;;;;;;;;350019;28;968;-83
2022/04/06 00:14:01;;;;;;;;;;;;;;;;;;350060;28;987;-84
2022/04/06 00:14:12;;;;;;;;;;;;;;;;;;349138;28;1770;-83
2022/04/06 00:14:22;;;;;;;;;;;;;;;;;;348810;28;872;-84
2022/04/06 00:14:33;;;;;;;;;;;;;;;;;;348792;28;991;-86
2022/04/06 00:14:43;;;;;;;;;;;;;;;;;;348736;28;952;-84
2022/04/06 00:14:53;;;;;;;;;;;;;;;;;;348533;28;1576;-83
2022/04/06 00:15:04;;;;;;;;;;;;;;;;;;348704;28;1003;-83
2022/04/06 00:15:14;;;;;;;;;;;;;;;;;;348641;28;1095;-84
2022/04/06 00:15:25;;;;;;;;;;;;;;;;;;348740;28;968;-84
2022/04/06 00:15:36;;;;;;;;;;;;;;;;;;348773;28;928;-83
2022/04/06 00:15:46;;;;;;;;;;;;;;;;;;348715;28;928;-83
2022/04/06 00:15:56;;;;;;;;;;;;;;;;;;348772;28;932;-84
2022/04/06 00:16:06;;;;;;;;;;;;;;;;;;348754;28;1007;-83
2022/04/06 00:16:16;;;;;;;;;;;;;;;;;;348736;28;781;-83
2022/04/06 00:16:27;;;;;;;;;;;;;;;;;;348717;28;999;-83
2022/04/06 00:16:37;;;;;;;;;;;;;;;;;;348766;28;979;-83
2022/04/06 00:16:47;;;;;;;;;;;;;;;;;;348699;28;1074;-83
2022/04/06 00:17:03;;;;;;;;;;;;;;;;;;348732;28;853;-83
2022/04/06 00:17:14;;;;;;;;;;;;;;;;;;348812;28;837;-83
2022/04/06 00:17:24;;;;;;;;;;;;;;;;;;348726;28;1011;-83
2022/04/06 00:17:34;;;;;;;;;;;;;;;;;;348711;28;975;-83
2022/04/06 00:17:44;;;;;;;;;;;;;;;;;;348616;28;1102;-83
2022/04/06 00:17:54;;;;;;;;;;;;;;;;;;348732;28;915;-83
2022/04/06 00:18:05;;;;;;;;;;;;;;;;;;348748;28;909;-84
2022/04/06 00:18:15;;;;;;;;;;;;;;;;;;348652;28;995;-84
2022/04/06 00:18:25;;;;;;;;;;;;;;;;;;348618;28;1617;-83
2022/04/06 00:18:35;;;;;;;;;;;;;;;;;;348546;28;1596;-83
2022/04/06 00:18:45;;;;;;;;;;;;;;;;;;348775;28;968;-83
2022/04/06 00:18:56;;;;;;;;;;;;;;;;;;348649;28;1034;-83
2022/04/06 00:19:07;;;;;;;;;;;;;;;;;;348644;28;1652;-83
2022/04/06 00:19:17;;;;;;;;;;;;;;;;;;347345;28;1079;-83
2022/04/06 00:19:27;;;;;;;;;;;;;;;;;;347341;28;988;-83
2022/04/06 00:19:37;;;;;;;;;;;;;;;;;;347337;28;928;-83
2022/04/06 00:19:47;;;;;;;;;;;;;;;;;;348235;28;1726;-83
2022/04/06 00:19:58;;;;;;;;;;;;;;;;;;348635;28;1067;-83
2022/04/06 00:20:09;;;;;;;;;;;;;;;;;;348598;28;1149;-83
2022/04/06 00:20:19;;;;;;;;;;;;;;;;;;348786;28;979;-83
2022/04/06 00:20:30;;;;;;;;;;;;;;;;;;348700;28;912;-83
2022/04/06 00:20:40;;;;;;;;;;;;;;;;;;348677;28;1133;-84
2022/04/06 00:20:50;;;;;;;;;;;;;;;;;;348743;28;1156;-84
2022/04/06 00:21:00;;;;;;;;;;;;;;;;;;348688;28;809;-83
2022/04/06 00:21:11;;;;;;;;;;;;;;;;;;348746;28;848;-83
2022/04/06 00:21:23;;;;;;;;;;;;;;;;;;348749;28;1007;-83
2022/04/06 00:21:33;;;;;;;;;;;;;;;;;;348358;28;1652;-83
2022/04/06 00:21:45;;;;;;;;;;;;;;;;;;348674;28;916;-83
2022/04/06 00:21:55;;;;;;;;;;;;;;;;;;348753;28;964;-83
2022/04/06 00:22:05;;;;;;;;;;;;;;;;;;348495;28;1680;-83
2022/04/06 00:22:16;;;;;;;;;;;;;;;;;;348783;28;924;-83
2022/04/06 00:22:26;;;;;;;;;;;;;;;;;;348719;28;1969;-83
2022/04/06 00:22:36;;;;;;;;;;;;;;;;;;348797;28;920;-83
2022/04/06 00:22:46;;;;;;;;;;;;;;;;;;348727;28;913;-83
2022/04/06 00:22:56;;;;;;;;;;;;;;;;;;348757;28;825;-83
2022/04/06 00:23:08;;;;;;;;;;;;;;;;;;348747;28;980;-83
2022/04/06 00:23:18;;;;;;;;;;;;;;;;;;348737;28;1028;-83
2022/04/06 00:23:28;;;;;;;;;;;;;;;;;;348698;28;1003;-83
2022/04/06 00:23:38;;;;;;;;;;;;;;;;;;348722;28;1050;-83
2022/04/06 00:23:49;;;;;;;;;;;;;;;;;;348737;28;963;-83
2022/04/06 00:23:59;;;;;;;;;;;;;;;;;;348738;28;766;-83
2022/04/06 00:24:09;;;;;;;;;;;;;;;;;;348516;28;1688;-83
2022/04/06 00:24:20;;;;;;;;;;;;;;;;;;347377;28;916;-83
2022/04/06 00:24:30;;;;;;;;;;;;;;;;;;347391;28;971;-83
2022/04/06 00:24:40;;;;;;;;;;;;;;;;;;348299;28;1776;-83
2022/04/06 00:24:51;;;;;;;;;;;;;;;;;;348686;28;941;-83
2022/04/06 00:25:02;;;;;;;;;;;;;;;;;;348396;28;1680;-84
2022/04/06 00:25:12;;;;;;;;;;;;;;;;;;348628;28;1773;-83
2022/04/06 00:25:22;;;;;;;;;;;;;;;;;;348567;28;1762;-83
2022/04/06 00:25:33;;;;;;;;;;;;;;;;;;348577;28;1730;-85
2022/04/06 00:25:43;;;;;;;;;;;;;;;;;;348741;28;897;-84
2022/04/06 00:25:55;;;;;;;;;;;;;;;;;;348729;28;925;-83
2022/04/06 00:26:05;;;;;;;;;;;;;;;;;;348733;28;809;-83
2022/04/06 00:26:16;;;;;;;;;;;;;;;;;;348596;28;1727;-83
2022/04/06 00:26:26;;;;;;;;;;;;;;;;;;348778;28;814;-83
2022/04/06 00:26:36;;;;;;;;;;;;;;;;;;348463;28;1629;-83
2022/04/06 00:26:46;;;;;;;;;;;;;;;;;;348700;28;960;-83
2022/04/06 00:26:57;;;;;;;;;;;;;;;;;;348784;28;1062;-83
2022/04/06 00:27:07;;;;;;;;;;;;;;;;;;348731;28;971;-83
2022/04/06 00:27:18;;;;;;;;;;;;;;;;;;348735;28;737;-83
2022/04/06 00:27:28;;;;;;;;;;;;;;;;;;348779;28;925;-83
2022/04/06 00:27:38;;;;;;;;;;;;;;;;;;348716;28;865;-84
2022/04/06 00:27:48;;;;;;;;;;;;;;;;;;348751;28;861;-83
2022/04/06 00:27:58;;;;;;;;;;;;;;;;;;348694;28;909;-83
2022/04/06 00:28:09;;;;;;;;;;;;;;;;;;348659;28;1152;-83
2022/04/06 00:28:19;;;;;;;;;;;;;;;;;;348775;28;975;-83
2022/04/06 00:28:29;;;;;;;;;;;;;;;;;;348675;28;1015;-83
2022/04/06 00:28:39;;;;;;;;;;;;;;;;;;348651;28;1676;-83
2022/04/06 00:28:50;;;;;;;;;;;;;;;;;;348508;28;1753;-83
2022/04/06 00:29:01;;;;;;;;;;;;;;;;;;348381;28;1710;-83
2022/04/06 00:29:11;;;;;;;;;;;;;;;;;;348621;28;1660;-82
2022/04/06 00:29:21;;;;;;;;;;;;;;;;;;348431;28;1769;-83
2022/04/06 00:29:31;;;;;;;;;;;;;;;;;;348554;28;1360;-84
2022/04/06 00:29:42;;;;;;;;;;;;;;;;;;348639;28;959;-83
2022/04/06 00:29:52;;;;;;;;;;;;;;;;;;348649;28;1007;-83
2022/04/06 00:30:03;;;;;;;;;;;;;;;;;;348590;28;976;-84
2022/04/06 00:30:13;;;;;;;;;;;;;;;;;;348465;28;1676;-83
2022/04/06 00:30:23;;;;;;;;;;;;;;;;;;348488;28;2033;-83
2022/04/06 00:30:34;;;;;;;;;;;;;;;;;;348666;28;854;-83
2022/04/06 00:30:44;;;;;;;;;;;;;;;;;;348645;28;941;-83
2022/04/06 00:30:55;;;;;;;;;;;;;;;;;;348655;28;865;-83
2022/04/06 00:31:05;;;;;;;;;;;;;;;;;;348605;28;869;-83
2022/04/06 00:31:15;;;;;;;;;;;;;;;;;;348616;28;924;-83
2022/04/06 00:31:25;;;;;;;;;;;;;;;;;;348655;28;1019;-83
2022/04/06 00:31:35;;;;;;;;;;;;;;;;;;348718;28;948;-83
2022/04/06 00:31:46;;;;;;;;;;;;;;;;;;348747;28;790;-83
2022/04/06 00:31:56;;;;;;;;;;;;;;;;;;348714;28;887;-83
2022/04/06 00:32:06;;;;;;;;;;;;;;;;;;348536;28;1703;-83
2022/04/06 00:32:16;;;;;;;;;;;;;;;;;;348656;28;982;-83
2022/04/06 00:32:27;;;;;;;;;;;;;;;;;;348769;28;924;-85
2022/04/06 00:32:37;;;;;;;;;;;;;;;;;;348725;28;975;-83
2022/04/06 00:32:47;;;;;;;;;;;;;;;;;;348702;28;853;-83
2022/04/06 00:32:57;;;;;;;;;;;;;;;;;;348718;28;1172;-83
2022/04/06 00:33:08;;;;;;;;;;;;;;;;;;348783;28;817;-83
2022/04/06 00:33:18;;;;;;;;;;;;;;;;;;348445;28;1718;-83
2022/04/06 00:33:28;;;;;;;;;;;;;;;;;;348643;28;2096;-83
2022/04/06 00:33:38;;;;;;;;;;;;;;;;;;347375;28;979;-83
2022/04/06 00:33:49;;;;;;;;;;;;;;;;;;347338;28;916;-84
2022/04/06 00:33:59;;;;;;;;;;;;;;;;;;347743;28;1859;-84
2022/04/06 00:34:09;;;;;;;;;;;;;;;;;;348736;28;941;-83
2022/04/06 00:35:28;;;;;;;;;;;;;;;;;;348561;28;1687;-84
2022/04/06 00:35:34;;;;;;;;;;;;;;;;;;347365;28;932;-83
2022/04/06 00:35:45;;;;;;;;;;;;;;;;;;347340;28;1054;-83
2022/04/06 00:35:56;;;;;;;;;;;;;;;;;;348415;28;1660;-83
2022/04/06 00:36:06;;;;;;;;;;;;;;;;;;348672;28;995;-83
2022/04/06 00:36:16;;;;;;;;;;;;;;;;;;348619;28;913;-83
2022/04/06 00:36:26;;;;;;;;;;;;;;;;;;348734;28;928;-84
2022/04/06 00:36:36;;;;;;;;;;;;;;;;;;348506;28;1305;-84
2022/04/06 00:36:47;;;;;;;;;;;;;;;;;;347658;28;1425;-83
2022/04/06 00:36:57;;;;;;;;;;;;;;;;;;348716;28;900;-83
2022/04/06 00:37:08;;;;;;;;;;;;;;;;;;348683;28;992;-83
2022/04/06 00:37:18;;;;;;;;;;;;;;;;;;348668;28;1055;-83
2022/04/06 00:37:28;;;;;;;;;;;;;;;;;;348704;28;968;-83
2022/04/06 00:37:38;;;;;;;;;;;;;;;;;;348698;28;979;-83
2022/04/06 00:37:49;;;;;;;;;;;;;;;;;;347355;28;1644;-83
2022/04/06 00:38:00;;;;;;;;;;;;;;;;;;348007;28;1325;-83
2022/04/06 00:38:10;;;;;;;;;;;;;;;;;;347997;28;1449;-83
2022/04/06 00:38:20;;;;;;;;;;;;;;;;;;348643;28;1051;-83
2022/04/06 00:38:31;;;;;;;;;;;;;;;;;;348533;28;1651;-83
2022/04/06 00:38:41;;;;;;;;;;;;;;;;;;347480;28;1375;-83
2022/04/06 00:38:51;;;;;;;;;;;;;;;;;;348062;28;1457;-83
2022/04/06 00:39:02;;;;;;;;;;;;;;;;;;348673;28;921;-83
2022/04/06 00:39:12;;;;;;;;;;;;;;;;;;348634;28;968;-83
2022/04/06 00:39:22;;;;;;;;;;;;;;;;;;348471;28;1664;-83
2022/04/06 00:39:32;;;;;;;;;;;;;;;;;;348677;28;1144;-83
2022/04/06 00:39:43;;;;;;;;;;;;;;;;;;348671;28;1106;-83
2022/04/06 00:39:53;;;;;;;;;;;;;;;;;;348726;28;920;-83
2022/04/06 00:40:04;;;;;;;;;;;;;;;;;;348767;28;932;-83
2022/04/06 00:40:14;;;;;;;;;;;;;;;;;;348748;28;853;-83
2022/04/06 00:40:25;;;;;;;;;;;;;;;;;;348688;28;890;-83
2022/04/06 00:40:35;;;;;;;;;;;;;;;;;;348728;28;888;-83
2022/04/06 00:40:46;;;;;;;;;;;;;;;;;;348169;28;1649;-82
2022/04/06 00:40:56;;;;;;;;;;;;;;;;;;347945;28;1407;-83
2022/04/06 00:41:06;;;;;;;;;;;;;;;;;;347817;28;1413;-83
2022/04/06 00:41:16;;;;;;;;;;;;;;;;;;347973;28;1513;-83
2022/04/06 00:41:26;;;;;;;;;;;;;;;;;;347624;28;1438;-83
2022/04/06 00:41:39;;;;;;;;;;;;;;;;;;348737;28;976;-83
2022/04/06 00:41:49;;;;;;;;;;;;;;;;;;347896;28;1629;-83
2022/04/06 00:41:59;;;;;;;;;;;;;;;;;;348052;28;1389;-83
2022/04/06 00:42:09;;;;;;;;;;;;;;;;;;348747;28;810;-83
2022/04/06 00:42:19;;;;;;;;;;;;;;;;;;348486;28;1655;-83
2022/04/06 00:42:30;;;;;;;;;;;;;;;;;;348516;28;1914;-83
2022/04/06 00:42:40;;;;;;;;;;;;;;;;;;348660;28;829;-83
2022/04/06 00:42:50;;;;;;;;;;;;;;;;;;348726;28;913;-83
2022/04/06 00:43:05;;;;;;;;;;;;;;;;;;348708;28;944;-83
2022/04/06 00:43:15;;;;;;;;;;;;;;;;;;348731;28;1031;-83
2022/04/06 00:43:25;;;;;;;;;;;;;;;;;;348698;28;995;-86
2022/04/06 00:43:36;;;;;;;;;;;;;;;;;;348714;28;1066;-83
2022/04/06 00:44:06;;;;;;;;;;;;;;;;;;351381;28;1406;-83
2022/04/06 00:44:17;;;;;;;;;;;;;;;;;;351257;28;1308;-83
2022/04/06 00:44:28;;;;;;;;;;;;;;;;;;351326;28;869;-83
2022/04/06 00:44:38;;;;;;;;;;;;;;;;;;351347;28;851;-83
2022/04/06 00:44:48;;;;;;;;;;;;;;;;;;351374;28;1027;-83
2022/04/06 00:45:00;;;;;;;;;;;;;;;;;;351402;28;933;-83
2022/04/06 00:45:10;;;;;;;;;;;;;;;;;;351349;28;1058;-83
2022/04/06 00:45:21;;;;;;;;;;;;;;;;;;351346;28;956;-83
2022/04/06 00:45:31;;;;;;;;;;;;;;;;;;351342;28;944;-83
2022/04/06 00:45:42;;;;;;;;;;;;;;;;;;350032;28;1170;-83
2022/04/06 00:45:52;;;;;;;;;;;;;;;;;;348786;28;762;-83
2022/04/06 00:46:03;;;;;;;;;;;;;;;;;;348707;28;925;-83
2022/04/06 00:46:13;;;;;;;;;;;;;;;;;;348686;28;849;-83
2022/04/06 00:46:23;;;;;;;;;;;;;;;;;;348710;28;996;-83
2022/04/06 00:46:33;;;;;;;;;;;;;;;;;;348684;28;984;-83
2022/04/06 00:46:45;;;;;;;;;;;;;;;;;;348686;28;995;-83
2022/04/06 00:46:55;;;;;;;;;;;;;;;;;;348762;28;781;-83
2022/04/06 00:47:06;;;;;;;;;;;;;;;;;;348520;28;1679;-84
2022/04/06 00:47:16;;;;;;;;;;;;;;;;;;348753;28;844;-84
2022/04/06 00:47:27;;;;;;;;;;;;;;;;;;348732;28;916;-83
2022/04/06 00:47:37;;;;;;;;;;;;;;;;;;348727;28;988;-83
2022/04/06 00:47:47;;;;;;;;;;;;;;;;;;348755;28;776;-83
2022/04/06 00:47:58;;;;;;;;;;;;;;;;;;348484;28;1569;-83
2022/04/06 00:48:08;;;;;;;;;;;;;;;;;;348582;28;1548;-83
2022/04/06 00:48:19;;;;;;;;;;;;;;;;;;348700;28;936;-84
2022/04/06 00:48:29;;;;;;;;;;;;;;;;;;348522;28;1652;-84
2022/04/06 00:48:39;;;;;;;;;;;;;;;;;;348667;28;1836;-83
2022/04/06 00:48:49;;;;;;;;;;;;;;;;;;348631;28;825;-83
2022/04/06 00:48:59;;;;;;;;;;;;;;;;;;348669;28;1117;-83
2022/04/06 00:49:14;;;;;;;;;;;;;;;;;;348735;28;774;-83
2022/04/06 00:49:24;;;;;;;;;;;;;;;;;;348710;28;987;-83
2022/04/06 00:49:35;;;;;;;;;;;;;;;;;;348643;28;913;-84
2022/04/06 00:49:45;;;;;;;;;;;;;;;;;;348723;28;1024;-83
2022/04/06 00:49:55;;;;;;;;;;;;;;;;;;348742;28;921;-83
2022/04/06 00:50:06;;;;;;;;;;;;;;;;;;348754;28;778;-83
2022/04/06 00:50:17;;;;;;;;;;;;;;;;;;348749;28;775;-83
2022/04/06 00:50:27;;;;;;;;;;;;;;;;;;348604;28;1719;-83
2022/04/06 00:50:38;;;;;;;;;;;;;;;;;;348597;28;1793;-83
2022/04/06 00:50:48;;;;;;;;;;;;;;;;;;348695;28;901;-83
2022/04/06 00:50:58;;;;;;;;;;;;;;;;;;348573;28;980;-83
2022/04/06 00:51:09;;;;;;;;;;;;;;;;;;348701;28;995;-83
2022/04/06 00:51:19;;;;;;;;;;;;;;;;;;348712;28;995;-83
2022/04/06 00:51:30;;;;;;;;;;;;;;;;;;348701;28;992;-83
2022/04/06 00:51:44;;;;;;;;;;;;;;;;;;348676;28;983;-85
2022/04/06 00:51:55;;;;;;;;;;;;;;;;;;348579;28;999;-83
2022/04/06 00:52:06;;;;;;;;;;;;;;;;;;348714;28;916;-83
2022/04/06 00:52:17;;;;;;;;;;;;;;;;;;348635;28;1213;-83
2022/04/06 00:52:27;;;;;;;;;;;;;;;;;;348728;28;920;-83
2022/04/06 00:52:39;;;;;;;;;;;;;;;;;;348660;28;983;-83
2022/04/06 00:52:50;;;;;;;;;;;;;;;;;;348702;28;929;-84
2022/04/06 00:53:00;;;;;;;;;;;;;;;;;;348678;28;975;-83
2022/04/06 00:53:13;;;;;;;;;;;;;;;;;;348778;28;920;-83
2022/04/06 00:53:24;;;;;;;;;;;;;;;;;;349790;28;1235;-83
2022/04/06 00:53:36;;;;;;;;;;;;;;;;;;349595;28;1042;-83
2022/04/06 00:53:47;;;;;;;;;;;;;;;;;;348725;28;975;-83
2022/04/06 00:53:58;;;;;;;;;;;;;;;;;;348441;28;1747;-84
2022/04/06 00:54:08;;;;;;;;;;;;;;;;;;348725;28;933;-83
2022/04/06 00:54:21;;;;;;;;;;;;;;;;;;348766;28;892;-83
2022/04/06 00:54:32;;;;;;;;;;;;;;;;;;348481;28;1750;-83
2022/04/06 00:54:42;;;;;;;;;;;;;;;;;;348639;28;900;-85
2022/04/06 00:54:52;;;;;;;;;;;;;;;;;;348678;28;948;-83
2022/04/06 00:55:03;;;;;;;;;;;;;;;;;;348618;28;1012;-84
2022/04/06 00:55:14;;;;;;;;;;;;;;;;;;348651;28;1316;-83
2022/04/06 00:55:26;;;;;;;;;;;;;;;;;;348709;28;936;-83
2022/04/06 00:55:37;;;;;;;;;;;;;;;;;;348685;28;968;-83
2022/04/06 00:55:48;;;;;;;;;;;;;;;;;;348753;28;987;-83
2022/04/06 00:55:58;;;;;;;;;;;;;;;;;;348721;28;1031;-83
2022/04/06 00:56:08;;;;;;;;;;;;;;;;;;348695;28;921;-83
2022/04/06 00:56:19;;;;;;;;;;;;;;;;;;348701;28;901;-83
2022/04/06 00:56:29;;;;;;;;;;;;;;;;;;348429;28;1746;-83
2022/04/06 00:56:39;;;;;;;;;;;;;;;;;;348690;28;1083;-83
2022/04/06 00:56:50;;;;;;;;;;;;;;;;;;348386;28;1624;-83
2022/04/06 00:57:00;;;;;;;;;;;;;;;;;;348692;28;979;-83
2022/04/06 00:57:11;;;;;;;;;;;;;;;;;;348656;28;932;-83
2022/04/06 00:57:21;;;;;;;;;;;;;;;;;;348724;28;872;-83
2022/04/06 00:57:32;;;;;;;;;;;;;;;;;;348745;28;916;-83
2022/04/06 00:57:43;;;;;;;;;;;;;;;;;;348649;28;941;-83
2022/04/06 00:57:53;;;;;;;;;;;;;;;;;;348654;28;894;-83
2022/04/06 00:58:04;;;;;;;;;;;;;;;;;;348721;28;937;-83
2022/04/06 00:58:14;;;;;;;;;;;;;;;;;;348658;28;1125;-83
2022/04/06 00:58:25;;;;;;;;;;;;;;;;;;348461;28;1789;-83
2022/04/06 00:58:35;;;;;;;;;;;;;;;;;;348714;28;1063;-83
2022/04/06 00:58:45;;;;;;;;;;;;;;;;;;348734;28;913;-83
2022/04/06 00:58:56;;;;;;;;;;;;;;;;;;348543;28;1695;-82
2022/04/06 00:59:06;;;;;;;;;;;;;;;;;;348691;28;941;-83
2022/04/06 00:59:17;;;;;;;;;;;;;;;;;;348655;28;913;-83
2022/04/06 00:59:28;;;;;;;;;;;;;;;;;;348682;28;932;-83
2022/04/06 00:59:40;;;;;;;;;;;;;;;;;;348715;28;925;-83
2022/04/06 00:59:51;;;;;;;;;;;;;;;;;;348655;28;979;-82
2022/04/06 01:00:03;;;;;;;;;;;;;;;;;;348746;28;830;-83
2022/04/06 01:00:13;;;;;;;;;;;;;;;;;;348670;28;960;-83
2022/04/06 01:00:24;;;;;;;;;;;;;;;;;;348732;28;744;-83
2022/04/06 01:00:35;;;;;;;;;;;;;;;;;;348735;28;766;-84
2022/04/06 01:00:45;;;;;;;;;;;;;;;;;;348721;28;897;-83
2022/04/06 01:00:56;;;;;;;;;;;;;;;;;;348491;28;1671;-83
2022/04/06 01:01:06;;;;;;;;;;;;;;;;;;348652;28;893;-83
2022/04/06 01:01:16;;;;;;;;;;;;;;;;;;348663;28;904;-83
2022/04/06 01:01:26;;;;;;;;;;;;;;;;;;348681;28;1232;-83
2022/04/06 01:01:36;;;;;;;;;;;;;;;;;;348749;28;912;-83
2022/04/06 01:01:48;;;;;;;;;;;;;;;;;;348692;28;972;-83
2022/04/06 01:01:58;;;;;;;;;;;;;;;;;;348625;28;984;-83
2022/04/06 01:02:08;;;;;;;;;;;;;;;;;;348690;28;822;-84
2022/04/06 01:02:19;;;;;;;;;;;;;;;;;;348693;28;745;-83
2022/04/06 01:02:29;;;;;;;;;;;;;;;;;;348663;28;1969;-83
2022/04/06 01:02:39;;;;;;;;;;;;;;;;;;348680;28;1082;-83
2022/04/06 01:02:49;;;;;;;;;;;;;;;;;;348505;28;1565;-84
2022/04/06 01:03:00;;;;;;;;;;;;;;;;;;348522;28;1600;-83
2022/04/06 01:03:10;;;;;;;;;;;;;;;;;;348620;28;1718;-83
2022/04/06 01:03:22;;;;;;;;;;;;;;;;;;348609;28;960;-83
2022/04/06 01:03:32;;;;;;;;;;;;;;;;;;348704;28;932;-83
2022/04/06 01:03:42;;;;;;;;;;;;;;;;;;348655;28;825;-83
2022/04/06 01:03:53;;;;;;;;;;;;;;;;;;348667;28;869;-83
2022/04/06 01:04:03;;;;;;;;;;;;;;;;;;348744;28;786;-83
2022/04/06 01:04:14;;;;;;;;;;;;;;;;;;348717;28;959;-83
2022/04/06 01:04:25;;;;;;;;;;;;;;;;;;348718;28;932;-83
2022/04/06 01:04:35;;;;;;;;;;;;;;;;;;348696;28;1007;-83
2022/04/06 01:04:45;;;;;;;;;;;;;;;;;;348688;28;964;-83
2022/04/06 01:04:55;;;;;;;;;;;;;;;;;;348682;28;837;-83
2022/04/06 01:05:06;;;;;;;;;;;;;;;;;;348529;28;1659;-83
2022/04/06 01:05:16;;;;;;;;;;;;;;;;;;348638;28;929;-83
2022/04/06 01:05:27;;;;;;;;;;;;;;;;;;348665;28;967;-83
2022/04/06 01:05:37;;;;;;;;;;;;;;;;;;348698;28;837;-83
2022/04/06 01:05:47;;;;;;;;;;;;;;;;;;348633;28;984;-84
2022/04/06 01:05:57;;;;;;;;;;;;;;;;;;348675;28;965;-83
2022/04/06 01:06:08;;;;;;;;;;;;;;;;;;348720;28;953;-83
2022/04/06 01:06:20;;;;;;;;;;;;;;;;;;348618;28;1114;-82
2022/04/06 01:06:30;;;;;;;;;;;;;;;;;;348707;28;1000;-83
2022/04/06 01:06:41;;;;;;;;;;;;;;;;;;348659;28;976;-83
2022/04/06 01:06:51;;;;;;;;;;;;;;;;;;348656;28;941;-83
2022/04/06 01:07:02;;;;;;;;;;;;;;;;;;348703;28;814;-83
2022/04/06 01:07:12;;;;;;;;;;;;;;;;;;348711;28;893;-83
2022/04/06 01:07:23;;;;;;;;;;;;;;;;;;348716;28;991;-83
2022/04/06 01:07:33;;;;;;;;;;;;;;;;;;348686;28;891;-83
2022/04/06 01:07:50;;;;;;;;;;;;;;;;;;348719;28;947;-83
2022/04/06 01:08:01;;;;;;;;;;;;;;;;;;348671;28;792;-83
2022/04/06 01:08:12;;;;;;;;;;;;;;;;;;348682;28;913;-83
2022/04/06 01:08:22;;;;;;;;;;;;;;;;;;348546;28;944;-83
2022/04/06 01:08:33;;;;;;;;;;;;;;;;;;348537;28;833;-83
2022/04/06 01:08:43;;;;;;;;;;;;;;;;;;348683;28;947;-83
2022/04/06 01:08:54;;;;;;;;;;;;;;;;;;348491;28;1648;-83
2022/04/06 01:09:04;;;;;;;;;;;;;;;;;;348711;28;912;-83
2022/04/06 01:09:18;;;;;;;;;;;;;;;;;;348676;28;1109;-83
2022/04/06 01:09:29;;;;;;;;;;;;;;;;;;348718;28;849;-83
2022/04/06 01:09:39;;;;;;;;;;;;;;;;;;348594;28;1008;-83
2022/04/06 01:09:50;;;;;;;;;;;;;;;;;;348685;28;920;-83
2022/04/06 01:10:00;;;;;;;;;;;;;;;;;;348707;28;794;-83
2022/04/06 01:10:10;;;;;;;;;;;;;;;;;;348723;28;940;-83
2022/04/06 01:10:20;;;;;;;;;;;;;;;;;;348640;28;1028;-83
2022/04/06 01:10:31;;;;;;;;;;;;;;;;;;348645;28;972;-83
2022/04/06 01:10:41;;;;;;;;;;;;;;;;;;348683;28;917;-83
2022/04/06 01:10:51;;;;;;;;;;;;;;;;;;348682;28;932;-83
2022/04/06 01:11:01;;;;;;;;;;;;;;;;;;348621;28;1050;-83
2022/04/06 01:11:12;;;;;;;;;;;;;;;;;;348696;28;975;-83
2022/04/06 01:11:23;;;;;;;;;;;;;;;;;;348618;28;1000;-83
2022/04/06 01:11:34;;;;;;;;;;;;;;;;;;348649;28;1023;-83
2022/04/06 01:11:45;;;;;;;;;;;;;;;;;;348305;28;1281;-84
2022/04/06 01:11:55;;;;;;;;;;;;;;;;;;348116;28;1672;-84
2022/04/06 01:12:06;;;;;;;;;;;;;;;;;;348599;28;1261;-83
2022/04/06 01:12:16;;;;;;;;;;;;;;;;;;349974;28;1040;-83
2022/04/06 01:12:27;;;;;;;;;;;;;;;;;;347170;28;1394;-83
2022/04/06 01:12:38;;;;;;;;;;;;;;;;;;348584;28;1126;-83
2022/04/06 01:12:49;;;;;;;;;;;;;;;;;;348687;28;1008;-83
2022/04/06 01:13:00;;;;;;;;;;;;;;;;;;348639;28;1031;-83
2022/04/06 01:13:10;;;;;;;;;;;;;;;;;;348498;28;1703;-83
2022/04/06 01:13:20;;;;;;;;;;;;;;;;;;348679;28;999;-84
2022/04/06 01:13:31;;;;;;;;;;;;;;;;;;348662;28;952;-84
2022/04/06 01:13:41;;;;;;;;;;;;;;;;;;348664;28;1000;-83
2022/04/06 01:13:52;;;;;;;;;;;;;;;;;;348449;28;1649;-83
2022/04/06 01:14:02;;;;;;;;;;;;;;;;;;347775;28;1547;-83
2022/04/06 01:14:13;;;;;;;;;;;;;;;;;;348665;28;752;-83
2022/04/06 01:14:23;;;;;;;;;;;;;;;;;;348756;28;837;-83
2022/04/06 01:14:34;;;;;;;;;;;;;;;;;;348713;28;972;-83
2022/04/06 01:14:45;;;;;;;;;;;;;;;;;;348701;28;834;-83
2022/04/06 01:14:55;;;;;;;;;;;;;;;;;;348620;28;945;-83
2022/04/06 01:15:06;;;;;;;;;;;;;;;;;;348417;28;1640;-83
2022/04/06 01:15:16;;;;;;;;;;;;;;;;;;348615;28;1823;-83
2022/04/06 01:15:27;;;;;;;;;;;;;;;;;;348689;28;941;-83
2022/04/06 01:15:38;;;;;;;;;;;;;;;;;;348549;28;1644;-83
2022/04/06 01:15:48;;;;;;;;;;;;;;;;;;348521;28;1784;-83
2022/04/06 01:15:58;;;;;;;;;;;;;;;;;;348674;28;849;-83
2022/04/06 01:16:08;;;;;;;;;;;;;;;;;;348664;28;968;-83
2022/04/06 01:16:18;;;;;;;;;;;;;;;;;;348669;28;963;-83
2022/04/06 01:16:29;;;;;;;;;;;;;;;;;;348684;28;984;-83
2022/04/06 01:16:40;;;;;;;;;;;;;;;;;;348548;28;881;-84